Flight Track Log - Related Links

Times and Time Zones

All times are in EDT time to prevent confusion due to time zone crossing. See the UAL4401 flight status page for this flight to view local times or setup timezone preferences in your user account.

Time Position Orientation Groundspeed Altitude Reporting Facility
EDT Latitude Longitude Course Direction KTS MPH feet Rate Location/Type
Sat 08:43:00 PM 29.8583 -93.9751 81° East  Level FlightAware Approximate
Sat 08:44:00 PM 29.8702 -93.8388 82° East  Level FlightAware Approximate
Sat 08:45:00 PM 29.8833 -93.7025 90° East  Level FlightAware Approximate
Sat 08:46:00 PM 29.8947 -93.5541 82° East  Level FlightAware Approximate
Sat 08:47:00 PM 29.9121 -93.4061 82° East  Level FlightAware Approximate
Sat 08:48:00 PM 29.9213 -93.2577 78° East  Level FlightAware Approximate
Sat 08:49:00 PM 29.9479 -93.1115 78° East  Level FlightAware Approximate
Sat 08:50:00 PM 29.9615 -92.9630 84° East  Level FlightAware Approximate
Sat 08:51:00 PM 29.9667 -92.8139 90° East  Level FlightAware Approximate
Sat 08:52:00 PM 29.9811 -92.6658 81° East  Level FlightAware Approximate
Sat 08:53:00 PM 29.9921 -92.5170 85° East  Level FlightAware Approximate
Sat 08:54:00 PM 30.0032 -92.3681 85° East  Level FlightAware Approximate
Sat 08:55:00 PM 30.0140 -92.2191 85° East  Level FlightAware Approximate
Sat 08:56:00 PM 30.0248 -92.0702 85° East  Level FlightAware Approximate
Sat 08:57:00 PM 30.0353 -91.9211 85° East  Level FlightAware Approximate
Sat 08:58:00 PM 30.0457 -91.7721 85° East  Level FlightAware Approximate
Sat 08:59:00 PM 30.0560 -91.6230 85° East  Level FlightAware Approximate
Sat 09:00:00 PM 30.0660 -91.4739 86° East  Level FlightAware Approximate
Sat 09:01:00 PM 30.0759 -91.3248 86° East  Level FlightAware Approximate
Sat 09:02:00 PM 30.0856 -91.1756 86° East  Level FlightAware Approximate
Sat 09:03:00 PM 30.0952 -91.0264 86° East  Level FlightAware Approximate
Sat 09:04:00 PM 30.1176 -90.8799 74° East  Level FlightAware Approximate
Sat 09:05:00 PM 30.1535 -90.7361 74° East  Level FlightAware Approximate
Sat 09:06:00 PM 30.1895 -90.5922 74° East  Level FlightAware Approximate
Sat 09:07:00 PM 30.2254 -90.4483 74° East  Level FlightAware Approximate
Sat 09:08:00 PM 30.2611 -90.3043 74° East  Level FlightAware Approximate
Sat 09:09:00 PM 30.2967 -90.1602 74° East  Level FlightAware Approximate
Sat 09:10:00 PM 30.3322 -90.0160 74° East  Level FlightAware Approximate
Sat 09:11:00 PM 30.3674 -89.8717 74° East  Level FlightAware Approximate
Sat 09:12:00 PM 30.4025 -89.7272 74° East  Level FlightAware Approximate
Sat 09:13:00 PM 30.4374 -89.5826 75° East  Level FlightAware Approximate
Sat 09:14:00 PM 30.4709 -89.4376 75° East  Level FlightAware Approximate
Sat 09:15:00 PM 30.5043 -89.2925 75° East  Level FlightAware Approximate
Sat 09:16:00 PM 30.5375 -89.1473 75° East  Level FlightAware Approximate
Sat 09:17:00 PM 30.5706 -89.0019 75° East  Level FlightAware Approximate
Sat 09:18:00 PM 30.6035 -88.8565 75° East  Level FlightAware Approximate
Sat 09:19:00 PM 30.6362 -88.7110 75° East  Level FlightAware Approximate
Sat 09:20:00 PM 30.6688 -88.5654 75° East  Level FlightAware Approximate
Sat 09:21:00 PM 30.7012 -88.4196 75° East  Level FlightAware Approximate
Sat 09:22:00 PM 30.7613 -88.2909 49° Northeast  Level FlightAware Approximate
Sat 09:23:00 PM 30.8468 -88.1777 49° Northeast  Level FlightAware Approximate
Sat 09:24:00 PM 30.9321 -88.0643 49° Northeast  Level FlightAware Approximate
Sat 09:25:00 PM 31.0174 -87.9508 49° Northeast  Level FlightAware Approximate
Sat 09:26:00 PM 31.1026 -87.8369 49° Northeast  Level FlightAware Approximate
Sat 09:27:00 PM 31.1876 -87.7229 49° Northeast  Level FlightAware Approximate
Sat 09:28:00 PM 31.2722 -87.6084 52° Northeast  Level FlightAware Approximate
Sat 09:29:00 PM 31.3531 -87.4902 49° Northeast  Level FlightAware Approximate
Sat 09:30:00 PM 31.4383 -87.3760 49° Northeast  Level FlightAware Approximate
Sat 09:31:00 PM 31.5234 -87.2616 49° Northeast  Level FlightAware Approximate
Sat 09:32:00 PM 31.6084 -87.1470 49° Northeast  Level FlightAware Approximate
Sat 09:33:00 PM 31.6933 -87.0322 49° Northeast  Level FlightAware Approximate
Sat 09:34:00 PM 31.7781 -86.9172 49° Northeast  Level FlightAware Approximate
Sat 09:35:00 PM 31.8628 -86.8020 49° Northeast  Level FlightAware Approximate
Sat 09:36:00 PM 31.9474 -86.6866 49° Northeast  Level FlightAware Approximate
Sat 09:37:00 PM 32.0318 -86.5709 49° Northeast  Level FlightAware Approximate
Sat 09:38:00 PM 32.1162 -86.4551 49° Northeast  Level FlightAware Approximate
Sat 09:39:00 PM 32.2005 -86.3390 49° Northeast  Level FlightAware Approximate
Sat 09:40:00 PM 32.2814 -86.2196 52° Northeast  Level FlightAware Approximate
Sat 09:41:00 PM 32.3617 -86.0994 52° Northeast  Level FlightAware Approximate
Sat 09:42:00 PM 32.4420 -85.9792 52° Northeast  Level FlightAware Approximate
Sat 09:43:00 PM 32.5221 -85.8587 52° Northeast  Level FlightAware Approximate
Sat 09:44:00 PM 32.6022 -85.7380 52° Northeast  Level FlightAware Approximate
Sat 09:45:00 PM 32.6821 -85.6171 52° Northeast  Level FlightAware Approximate
Sat 09:46:00 PM 32.7620 -85.4960 52° Northeast  Level FlightAware Approximate
Sat 09:47:00 PM 32.8417 -85.3746 52° Northeast  Level FlightAware Approximate
Sat 09:48:00 PM 32.9213 -85.2531 52° Northeast  Level FlightAware Approximate
Sat 09:49:00 PM 33.0007 -85.1313 52° Northeast  Level FlightAware Approximate
Sat 09:50:00 PM 33.0801 -85.0093 52° Northeast  Level FlightAware Approximate
Sat 09:51:00 PM 33.1593 -84.8871 52° Northeast  Level FlightAware Approximate
Sat 09:52:00 PM 33.2394 -84.7655 52° Northeast  Level FlightAware Approximate
Sat 09:53:00 PM 33.3198 -84.6442 52° Northeast  Level FlightAware Approximate
Sat 09:54:00 PM 33.4000 -84.5226 52° Northeast  Level FlightAware Approximate
Sat 09:55:00 PM 33.4801 -84.4007 52° Northeast  Level FlightAware Approximate
Sat 09:56:00 PM 33.5602 -84.2787 52° Northeast  Level FlightAware Approximate
Sat 09:57:00 PM 33.6399 -84.1562 53° Northeast  Level FlightAware Approximate
Sat 09:58:00 PM 33.7178 -84.0320 53° Northeast  Level FlightAware Approximate
Sat 09:59:00 PM 33.7956 -83.9076 53° Northeast  Level FlightAware Approximate
Sat 10:00:00 PM 33.8732 -83.7829 53° Northeast  Level FlightAware Approximate
Sat 10:01:00 PM 33.9522 -83.6593 52° Northeast  Level FlightAware Approximate
Sat 10:02:00 PM 34.0312 -83.5357 52° Northeast  Level FlightAware Approximate
Sat 10:03:00 PM 34.1101 -83.4118 52° Northeast  Level FlightAware Approximate
Sat 10:04:00 PM 34.1889 -83.2877 52° Northeast  Level FlightAware Approximate
Sat 10:05:00 PM 34.2676 -83.1634 53° Northeast  Level FlightAware Approximate
Sat 10:06:00 PM 34.3461 -83.0388 53° Northeast  Level FlightAware Approximate
Sat 10:07:00 PM 34.4246 -82.9140 53° Northeast  Level FlightAware Approximate
Sat 10:08:00 PM 34.5011 -82.7874 54° Northeast  Level FlightAware Approximate
Sat 10:09:00 PM 34.5773 -82.6604 54° Northeast  Level FlightAware Approximate
Sat 10:10:00 PM 34.6539 -82.5336 53° Northeast  Level FlightAware Approximate
Sat 10:11:00 PM 34.7318 -82.4078 53° Northeast  Level FlightAware Approximate
Sat 10:12:00 PM 34.8095 -82.2818 53° Northeast  Level FlightAware Approximate
Sat 10:13:00 PM 34.8871 -82.1556 53° Northeast  Level FlightAware Approximate
Sat 10:14:00 PM 34.9646 -82.0292 53° Northeast  Level FlightAware Approximate
Sat 10:15:00 PM 35.0403 -81.9011 61° Northeast  Level FlightAware Approximate
Sat 10:16:00 PM 35.1024 -81.7624 56° Northeast  Level FlightAware Approximate
Sat 10:17:00 PM 35.1752 -81.6314 56° Northeast  Level FlightAware Approximate
Sat 10:18:00 PM 35.2434 -81.4968 58° Northeast  Level FlightAware Approximate
Sat 10:19:00 PM 35.3110 -81.3616 59° Northeast  Level FlightAware Approximate
Sat 10:20:00 PM 35.3866 -81.2331 52° Northeast  Level FlightAware Approximate
Sat 10:21:00 PM 35.4638 -81.1058 58° Northeast  Level FlightAware Approximate
Sat 10:22:00 PM 35.5316 -80.9703 58° Northeast  Level FlightAware Approximate
Sat 10:23:00 PM 35.5994 -80.8347 58° Northeast  Level FlightAware Approximate
Sat 10:24:00 PM 35.6676 -80.6994 57° Northeast  Level FlightAware Approximate
Sat 10:25:00 PM 35.7371 -80.5650 57° Northeast  Level FlightAware Approximate
Sat 10:26:00 PM 35.8065 -80.4303 58° Northeast  Level FlightAware Approximate
Sat 10:27:00 PM 35.8757 -80.2953 58° Northeast  Level FlightAware Approximate
Sat 10:28:00 PM 35.9448 -80.1602 58° Northeast  Level FlightAware Approximate
Sat 10:29:00 PM 36.0087 -80.0211 61° Northeast  Level FlightAware Approximate
Sat 10:30:00 PM 36.0817 -79.8894 52° Northeast  Level FlightAware Approximate
Sat 10:31:00 PM 36.1577 -79.7598 55° Northeast  Level FlightAware Approximate
Sat 10:32:00 PM 36.2313 -79.6278 55° Northeast  Level FlightAware Approximate
Sat 10:33:00 PM 36.3046 -79.4955 55° Northeast  Level FlightAware Approximate
Sat 10:34:00 PM 36.3772 -79.3624 58° Northeast  Level FlightAware Approximate
Sat 10:35:00 PM 36.4535 -79.2435 56° Northeast  Level FlightAware Approximate
Sat 10:36:00 PM 36.5255 -79.1097 56° Northeast  Level FlightAware Approximate
Sat 10:37:00 PM 36.5974 -78.9757 56° Northeast  Level FlightAware Approximate
Sat 10:38:00 PM 36.6691 -78.8414 56° Northeast  Level FlightAware Approximate
Sat 10:39:00 PM 36.7389 -78.7055 58° Northeast  Level FlightAware Approximate
Sat 10:40:00 PM 36.8094 -78.5699 55° Northeast  Level FlightAware Approximate
Sat 10:41:00 PM 36.8833 -78.4371 55° Northeast  Level FlightAware Approximate
Sat 10:42:00 PM 36.9596 -78.3071 39° Northeast  Level FlightAware Approximate
Sat 10:43:00 PM 37.0473 -78.1904 34° Northeast  Level FlightAware Approximate
Sat 10:44:00 PM 37.1548 -78.1000 32° Northeast  Level FlightAware Approximate
Sat 10:45:00 PM 37.2648 -78.0142 32° Northeast  Level FlightAware Approximate
Sat 10:46:00 PM 37.3746 -77.9282 32° Northeast  Level FlightAware Approximate
Sat 10:47:00 PM 37.4845 -77.8420 32° Northeast  Level FlightAware Approximate
Sat 10:48:00 PM 37.6008 -77.7714 23° Northeast  Level FlightAware Approximate
Sat 10:49:00 PM 37.7199 -77.7073 23° Northeast  Level FlightAware Approximate
Sat 10:50:00 PM 37.8352 -77.6333 North  Level FlightAware Approximate
Sat 10:51:00 PM 37.9511 -77.5661 21° North  Level FlightAware Approximate
Sat 10:52:00 PM 38.0699 -77.5017 31° Northeast  Level FlightAware Approximate
Sat 10:53:00 PM 38.1865 -77.4313 28° Northeast  Level FlightAware Approximate
Sat 10:54:00 PM 38.3032 -77.3651 21° North  Level FlightAware Approximate
Sat 10:55:00 PM 38.4304 -77.3500 North  Level FlightAware Approximate
Sat 10:56:00 PM 38.5598 -77.3500 North  Level FlightAware Approximate
Sat 10:57:00 PM 38.6893 -77.3500 North  Level FlightAware Approximate
Sat 10:58:00 PM 38.8187 -77.3500 North  Level FlightAware Approximate
Sat 10:59:00 PM 38.9473 -77.3382 11° North  Level FlightAware Approximate
Sat 11:00:00 PM 38.9474 -77.4599 North  Level Estimated
Sat 11:01:00 PM 38.9474 -77.4599 North  Level Estimated
Sat 11:02:00 PM 38.9474 -77.4599 201° Southwest  Level Estimated
Sat 11:03:00 PM 38.9474 -77.4599 207° Southwest  Level Estimated
Sat 11:04:00 PM 38.9474 -77.4599 191° South  Level Estimated
Sat 11:05:00 PM 38.9474 -77.4599 191° South  Level Estimated
Sat 11:06:00 PM 38.9474 -77.4599 191° South  Level Estimated
Sat 11:07:00 PM 38.9474 -77.4599 191° South  Level Estimated
Sat 11:08:00 PM 38.9474 -77.4599 191° South  Level Estimated
Sat 11:09:00 PM 38.9474 -77.4599 191° South  Level Estimated
Sat 11:10:00 PM 38.9474 -77.4599 191° South  Level Estimated
Sat 11:11:00 PM 38.9474 -77.4599 191° South  Level Estimated
Sat 11:12:00 PM 38.9474 -77.4599 191° South  Level Estimated
Sat 11:13:00 PM 38.9474 -77.4599 191° South  Level Estimated
Sat 11:14:00 PM 38.9474 -77.4599 191° South  Level Estimated
Sat 11:15:00 PM 38.9474 -77.4599 191° South  Level Estimated
Sat 11:16:00 PM 38.9474 -77.4599 191° South  Level Estimated

Login

Don't have an account? Register now (free) for customized features, flight alerts, and more!